createdAt,value
2024-05-09T00:00:36.454Z,99454.06
2024-05-09T00:03:30.540Z,99454.16
2024-05-09T00:06:02.007Z,99452.97
2024-05-09T00:08:32.913Z,99449.84
2024-05-09T00:11:04.342Z,99459.31
2024-05-09T00:13:35.224Z,99462.38
2024-05-09T00:16:09.656Z,99460.31
2024-05-09T00:18:40.456Z,99450.78
2024-05-09T00:21:12.839Z,99459.72
2024-05-09T00:23:44.238Z,99464.44
2024-05-09T00:26:19.149Z,99460.91
2024-05-09T00:28:50.000Z,99458.09
2024-05-09T00:31:23.855Z,99459.53
2024-05-09T00:33:54.761Z,99449.84
2024-05-09T00:36:25.939Z,99448.53
2024-05-09T00:38:56.675Z,99444.94
2024-05-09T00:41:27.829Z,99450.78
2024-05-09T00:43:58.568Z,99451.06
2024-05-09T00:46:32.537Z,99451.59
2024-05-09T00:49:05.454Z,99448.66
2024-05-09T00:51:36.872Z,99448.28
2024-05-09T00:54:08.561Z,99447.50
2024-05-09T00:56:39.850Z,99455.97
2024-05-09T00:59:11.331Z,99461.56
2024-05-09T01:01:47.096Z,99454.91
2024-05-09T01:04:18.138Z,99460.19
2024-05-09T01:06:50.509Z,99464.47
2024-05-09T01:09:21.331Z,99462.59
2024-05-09T01:11:52.644Z,99455.75
2024-05-09T01:14:23.644Z,99458.34
2024-05-09T01:16:57.955Z,99463.06
2024-05-09T01:19:32.821Z,99459.13
2024-05-09T01:22:04.631Z,99461.34
2024-05-09T01:24:38.040Z,99460.38
2024-05-09T01:27:09.141Z,99469.84
2024-05-09T01:32:10.942Z,99465.00
2024-05-09T01:34:41.723Z,99461.81
2024-05-09T01:37:12.927Z,99463.91
2024-05-09T01:39:46.481Z,99461.66
2024-05-09T01:42:18.318Z,99463.69
2024-05-09T01:44:49.057Z,99472.09
2024-05-09T01:47:20.336Z,99464.75
2024-05-09T01:49:51.236Z,99473.34
2024-05-09T01:52:22.567Z,99478.13
2024-05-09T01:54:55.921Z,99475.28
2024-05-09T01:57:27.044Z,99482.47
2024-05-09T01:59:58.695Z,99479.44
2024-05-09T02:02:30.007Z,99487.06
2024-05-09T02:05:00.912Z,99481.53
2024-05-09T02:07:32.171Z,99484.03
2024-05-09T02:10:13.624Z,99476.09
2024-05-09T02:12:47.818Z,99481.16
2024-05-09T02:15:19.060Z,99478.00
2024-05-09T02:17:50.703Z,99479.03
2024-05-09T02:22:57.515Z,99482.56
2024-05-09T02:25:31.003Z,99479.53
2024-05-09T02:28:02.241Z,99478.56
2024-05-09T02:30:39.815Z,99477.13
2024-05-09T02:33:14.541Z,99487.78
2024-05-09T02:35:44.291Z,99477.72
2024-05-09T02:38:16.074Z,99483.06
2024-05-09T02:40:46.894Z,99484.75
2024-05-09T02:43:18.068Z,99483.75
2024-05-09T02:45:46.058Z,99482.88
2024-05-09T02:48:17.329Z,99477.03
2024-05-09T02:50:45.523Z,99481.66
2024-05-09T02:53:17.045Z,99479.88
2024-05-09T02:55:47.855Z,99475.63
2024-05-09T02:58:19.030Z,99484.09
2024-05-09T03:00:47.231Z,99485.47
2024-05-09T03:03:18.775Z,99484.66
2024-05-09T03:05:47.743Z,99483.63
2024-05-09T03:08:19.204Z,99477.38
2024-05-09T03:10:50.012Z,99475.56
2024-05-09T03:13:21.180Z,99481.25
2024-05-09T03:15:49.233Z,99479.22
2024-05-09T03:18:20.448Z,99496.16
2024-05-09T03:20:48.610Z,99494.06
2024-05-09T03:23:19.797Z,99493.44
2024-05-09T03:25:50.569Z,99491.91
2024-05-09T03:28:21.767Z,99490.84
2024-05-09T03:30:50.055Z,99484.97
2024-05-09T03:33:21.823Z,99491.72
2024-05-09T03:35:50.231Z,99492.44
2024-05-09T03:38:21.540Z,99493.28
2024-05-09T03:40:55.088Z,99500.09
2024-05-09T03:43:26.401Z,99492.59
2024-05-09T03:45:57.141Z,99500.47
2024-05-09T03:48:25.769Z,99493.91
2024-05-09T03:50:56.754Z,99495.00
2024-05-09T03:53:25.533Z,99509.38
2024-05-09T03:55:59.596Z,99510.78
2024-05-09T03:58:28.059Z,99506.53
2024-05-09T04:00:58.916Z,99512.44
2024-05-09T04:03:27.764Z,99513.59
2024-05-09T04:05:59.096Z,99514.78
2024-05-09T04:08:27.639Z,99523.47
2024-05-09T04:11:01.215Z,99520.19
2024-05-09T04:13:29.711Z,99522.13
2024-05-09T04:16:00.413Z,99520.84
2024-05-09T04:18:28.995Z,99522.47
2024-05-09T04:20:59.856Z,99523.13
2024-05-09T04:23:28.364Z,99537.53
2024-05-09T04:26:04.395Z,99543.03
2024-05-09T04:28:32.955Z,99541.47
2024-05-09T04:31:03.695Z,99543.50
2024-05-09T04:33:32.919Z,99549.25
2024-05-09T04:36:03.719Z,99545.13
2024-05-09T04:38:32.299Z,99541.47
2024-05-09T04:41:05.769Z,99548.72
2024-05-09T04:43:35.489Z,99550.22
2024-05-09T04:46:06.223Z,99549.72
2024-05-09T04:48:34.897Z,99550.59
2024-05-09T04:51:05.942Z,99549.72
2024-05-09T04:53:34.578Z,99550.03
2024-05-09T04:56:09.428Z,99546.34
2024-05-09T04:58:37.974Z,99552.94
2024-05-09T05:01:08.730Z,99549.16
2024-05-09T05:03:37.435Z,99549.63
2024-05-09T05:06:08.755Z,99555.09
2024-05-09T05:08:37.472Z,99548.41
2024-05-09T05:11:11.099Z,99546.69
2024-05-09T05:13:41.519Z,99557.84
2024-05-09T05:16:12.579Z,99556.91
2024-05-09T05:18:41.282Z,99551.53
2024-05-09T05:21:12.202Z,99554.25
2024-05-09T05:23:41.289Z,99554.78
2024-05-09T05:26:20.305Z,99556.41
2024-05-09T05:28:51.693Z,99558.53
2024-05-09T05:31:20.283Z,99562.06
2024-05-09T05:33:52.852Z,99562.72
2024-05-09T05:36:21.028Z,99564.53
2024-05-09T05:38:52.364Z,99564.28
2024-05-09T05:41:23.251Z,99574.34
2024-05-09T05:43:54.470Z,99559.78
2024-05-09T05:46:22.505Z,99560.75
2024-05-09T05:48:53.836Z,99561.63
2024-05-09T05:51:22.250Z,99562.00
2024-05-09T05:53:55.226Z,99556.31
2024-05-09T05:56:27.710Z,99558.16
2024-05-09T05:58:59.121Z,99565.69
2024-05-09T06:01:27.296Z,99567.16
2024-05-09T06:03:58.760Z,99570.03
2024-05-09T06:06:27.304Z,99571.94
2024-05-09T06:08:58.413Z,99572.13
2024-05-09T06:11:29.319Z,99575.03
2024-05-09T06:14:01.509Z,99579.75
2024-05-09T06:16:30.013Z,99577.19
2024-05-09T06:19:01.257Z,99578.72
2024-05-09T06:21:29.408Z,99575.28
2024-05-09T06:24:02.564Z,99583.44
2024-05-09T06:26:35.300Z,99584.16
2024-05-09T06:29:06.582Z,99586.63
2024-05-09T06:31:40.011Z,99589.53
2024-05-09T06:34:11.300Z,99577.53
2024-05-09T06:36:39.730Z,99589.28
2024-05-09T06:39:11.307Z,99582.25
2024-05-09T06:41:42.252Z,99580.09
2024-05-09T06:44:13.588Z,99587.34
2024-05-09T06:46:43.055Z,99583.25
2024-05-09T06:49:14.717Z,99586.72
2024-05-09T06:51:42.995Z,99593.38
2024-05-09T06:54:14.173Z,99583.06
2024-05-09T06:56:44.952Z,99586.28
2024-05-09T06:59:16.314Z,99584.25
2024-05-09T07:01:44.749Z,99584.69
2024-05-09T07:04:16.179Z,99583.06
2024-05-09T07:06:44.339Z,99589.25
2024-05-09T07:09:15.517Z,99593.44
2024-05-09T07:11:46.394Z,99599.88
2024-05-09T07:14:17.651Z,99587.84
2024-05-09T07:16:45.752Z,99601.28
2024-05-09T07:19:17.240Z,99599.53
2024-05-09T07:21:45.351Z,99600.41
2024-05-09T07:24:16.446Z,99595.97
2024-05-09T07:26:47.263Z,99608.53
2024-05-09T07:29:18.591Z,99598.22
2024-05-09T07:31:46.931Z,99599.97
2024-05-09T07:34:18.326Z,99604.75
2024-05-09T07:36:46.774Z,99601.44
2024-05-09T07:39:18.068Z,99602.22
2024-05-09T07:41:48.850Z,99608.75
2024-05-09T07:44:20.252Z,99607.50
2024-05-09T07:47:48.703Z,99610.06
2024-05-09T07:53:29.237Z,99608.56
2024-05-09T07:55:01.679Z,99606.06
2024-05-09T07:57:32.760Z,99609.31
2024-05-09T08:00:04.583Z,99610.94
2024-05-09T08:02:33.166Z,99616.66
2024-05-09T08:05:05.331Z,99619.84
2024-05-09T08:07:35.313Z,99617.66
2024-05-09T08:10:10.548Z,99623.22
2024-05-09T08:12:41.528Z,99614.66
2024-05-09T08:15:12.754Z,99616.09
2024-05-09T08:17:40.893Z,99626.75
2024-05-09T08:20:15.925Z,99613.69
2024-05-09T08:22:47.484Z,99625.34
2024-05-09T08:25:18.668Z,99618.63
2024-05-09T08:27:49.442Z,99615.00
2024-05-09T08:30:25.434Z,99621.63
2024-05-09T08:33:00.833Z,99615.09
2024-05-09T08:35:32.308Z,99616.19
2024-05-09T08:38:00.434Z,99623.03
2024-05-09T08:40:35.690Z,99615.44
2024-05-09T08:43:11.650Z,99616.09
2024-05-09T08:45:46.140Z,99612.44
2024-05-09T08:48:16.108Z,99614.88
2024-05-09T08:50:47.960Z,99616.63
2024-05-09T08:53:16.086Z,99607.75
2024-05-09T08:55:49.502Z,99598.06
2024-05-09T08:58:20.610Z,99598.81
2024-05-09T09:00:51.868Z,99609.63
2024-05-09T09:03:24.506Z,99602.78
2024-05-09T09:06:01.533Z,99608.88
2024-05-09T09:08:29.725Z,99616.19
2024-05-09T09:11:02.132Z,99607.06
2024-05-09T09:13:33.014Z,99605.78
2024-05-09T09:16:04.269Z,99605.16
2024-05-09T09:18:33.220Z,99600.34
2024-05-09T09:21:05.357Z,99606.19
2024-05-09T09:23:33.958Z,99602.88
2024-05-09T09:26:05.370Z,99603.97
2024-05-09T09:28:40.716Z,99605.22
2024-05-09T09:31:11.931Z,99591.06
2024-05-09T09:33:42.741Z,99602.00
2024-05-09T09:36:14.508Z,99593.13
2024-05-09T09:38:43.500Z,99602.53
2024-05-09T09:41:16.322Z,99596.25
2024-05-09T09:43:48.106Z,99600.84
2024-05-09T09:46:20.888Z,99595.16
2024-05-09T09:48:49.620Z,99595.59
2024-05-09T09:51:21.641Z,99593.31
2024-05-09T09:53:52.827Z,99597.44
2024-05-09T09:56:24.788Z,99593.31
2024-05-09T09:58:58.619Z,99595.38
2024-05-09T10:01:29.878Z,99604.84
2024-05-09T10:03:58.416Z,99605.22
2024-05-09T10:06:31.865Z,99593.63
2024-05-09T10:09:00.590Z,99586.16
2024-05-09T10:11:39.809Z,99595.34
2024-05-09T10:14:20.976Z,99590.91
2024-05-09T10:16:52.866Z,99585.13
2024-05-09T10:19:25.293Z,99583.09
2024-05-09T10:22:04.608Z,99588.31
2024-05-09T10:24:49.124Z,99579.63
2024-05-09T10:27:28.989Z,99570.09
2024-05-09T10:30:00.684Z,99582.00
2024-05-09T10:32:40.070Z,99583.50
2024-05-09T10:35:09.646Z,99580.50
2024-05-09T10:37:41.811Z,99576.53
2024-05-09T10:40:23.363Z,99579.69
2024-05-09T10:43:05.685Z,99576.38
2024-05-09T10:45:38.585Z,99571.00
2024-05-09T10:48:11.803Z,99567.91
2024-05-09T10:50:43.859Z,99565.97
2024-05-09T10:53:15.116Z,99571.19
2024-05-09T10:55:43.262Z,99562.25
2024-05-09T10:58:20.655Z,99563.66
2024-05-09T11:00:51.871Z,99569.59
2024-05-09T11:03:24.318Z,99566.13
2024-05-09T11:05:53.282Z,99557.38
2024-05-09T11:08:25.866Z,99566.44
2024-05-09T11:10:54.886Z,99560.78
2024-05-09T11:13:32.740Z,99564.16
2024-05-09T11:16:04.678Z,99566.22
2024-05-09T11:18:38.859Z,99567.00
2024-05-09T11:21:13.624Z,99560.97
2024-05-09T11:23:45.289Z,99568.09
2024-05-09T11:26:15.452Z,99559.16
2024-05-09T11:28:47.439Z,99569.31
2024-05-09T11:31:18.431Z,99570.09
2024-05-09T11:33:49.815Z,99568.81
2024-05-09T11:36:18.011Z,99563.25
2024-05-09T11:38:49.311Z,99568.25
2024-05-09T11:41:18.538Z,99560.69
2024-05-09T11:43:49.974Z,99563.59
2024-05-09T11:46:20.942Z,99563.94
2024-05-09T11:48:52.360Z,99565.38
2024-05-09T11:51:20.541Z,99559.56
2024-05-09T11:53:51.730Z,99561.50
2024-05-09T11:56:19.826Z,99559.13
2024-05-09T11:58:51.033Z,99559.38
2024-05-09T12:01:25.106Z,99560.41
2024-05-09T12:03:57.705Z,99560.03
2024-05-09T12:06:26.280Z,99550.78
2024-05-09T12:08:57.891Z,99564.09
2024-05-09T12:11:26.102Z,99558.28
2024-05-09T12:13:57.236Z,99554.47
2024-05-09T12:16:28.379Z,99548.84
2024-05-09T12:18:59.815Z,99547.00
2024-05-09T12:21:27.975Z,99542.63
2024-05-09T12:23:59.536Z,99548.19
2024-05-09T12:26:28.548Z,99544.78
2024-05-09T12:28:59.689Z,99541.75
2024-05-09T12:31:30.673Z,99533.09
2024-05-09T12:34:02.673Z,99544.25
2024-05-09T12:36:31.529Z,99544.69
2024-05-09T12:39:03.012Z,99546.28
2024-05-09T12:41:31.116Z,99543.00
2024-05-09T12:44:02.206Z,99541.78
2024-05-09T12:46:33.217Z,99535.38
2024-05-09T12:49:04.709Z,99535.91
2024-05-09T12:51:33.156Z,99528.72
2024-05-09T12:54:04.531Z,99535.34
2024-05-09T12:56:33.683Z,99534.63
2024-05-09T12:59:04.973Z,99527.78
2024-05-09T13:01:35.776Z,99527.44
2024-05-09T13:04:07.604Z,99524.88
2024-05-09T13:06:35.940Z,99518.66
2024-05-09T13:09:07.502Z,99519.19
2024-05-09T13:11:35.687Z,99522.63
2024-05-09T13:14:06.954Z,99516.28
2024-05-09T13:16:37.787Z,99517.19
2024-05-09T13:19:09.239Z,99520.72
2024-05-09T13:21:37.450Z,99506.16
2024-05-09T13:24:09.255Z,99513.53
2024-05-09T13:26:37.313Z,99504.22
2024-05-09T13:29:08.630Z,99504.97
2024-05-09T13:31:39.499Z,99504.31
2024-05-09T13:34:10.676Z,99502.84
2024-05-09T13:36:39.451Z,99489.00
2024-05-09T13:39:10.706Z,99496.03
2024-05-09T13:41:38.822Z,99497.88
2024-05-09T13:44:10.060Z,99496.25
2024-05-09T13:46:40.819Z,99494.06
2024-05-09T13:49:16.909Z,99495.28
2024-05-09T13:51:45.313Z,99491.84
2024-05-09T13:54:18.749Z,99485.75
2024-05-09T13:56:48.274Z,99487.66
2024-05-09T13:59:19.482Z,99491.47
2024-05-09T14:01:50.510Z,99480.75
2024-05-09T14:04:21.825Z,99475.72
2024-05-09T14:06:50.429Z,99479.16
2024-05-09T14:09:21.702Z,99480.75
2024-05-09T14:11:49.763Z,99472.16
2024-05-09T14:14:21.100Z,99481.66
2024-05-09T14:16:51.990Z,99479.09
2024-05-09T14:19:23.238Z,99468.63
2024-05-09T14:21:51.582Z,99469.59
2024-05-09T14:24:22.746Z,99470.63
2024-05-09T14:26:50.979Z,99469.59
2024-05-09T14:29:22.112Z,99474.88
2024-05-09T14:31:52.920Z,99469.66
2024-05-09T14:34:24.501Z,99469.84
2024-05-09T14:36:53.481Z,99465.22
2024-05-09T14:39:24.730Z,99465.97
2024-05-09T14:41:52.873Z,99470.69
2024-05-09T14:44:24.034Z,99474.16
2024-05-09T14:46:55.091Z,99470.41
2024-05-09T14:49:26.369Z,99476.31
2024-05-09T14:51:54.509Z,99472.94
2024-05-09T14:54:25.813Z,99470.16
2024-05-09T14:56:55.222Z,99471.78
2024-05-09T14:59:26.388Z,99471.13
2024-05-09T15:01:57.381Z,99474.44
2024-05-09T15:04:28.838Z,99472.81
2024-05-09T15:06:57.224Z,99477.66
2024-05-09T15:09:28.598Z,99460.09
2024-05-09T15:11:56.736Z,99466.09
2024-05-09T15:14:27.845Z,99461.06
2024-05-09T15:16:58.598Z,99455.81
2024-05-09T15:19:31.025Z,99454.84
2024-05-09T15:21:59.340Z,99452.28
2024-05-09T15:24:30.541Z,99445.75
2024-05-09T15:26:58.661Z,99447.88
2024-05-09T15:29:29.843Z,99449.69
2024-05-09T15:32:00.596Z,99444.69
2024-05-09T15:34:32.364Z,99450.91
2024-05-09T15:37:01.077Z,99444.16
2024-05-09T15:39:32.340Z,99445.00
2024-05-09T15:42:00.389Z,99444.59
2024-05-09T15:44:31.538Z,99444.34
2024-05-09T15:47:02.320Z,99445.44
2024-05-09T15:49:33.668Z,99444.91
2024-05-09T15:52:01.894Z,99441.03
2024-05-09T15:54:33.168Z,99439.00
2024-05-09T15:57:01.286Z,99435.59
2024-05-09T15:59:32.454Z,99444.56
2024-05-09T16:02:03.292Z,99441.88
2024-05-09T16:04:34.773Z,99448.75
2024-05-09T16:07:02.887Z,99441.03
2024-05-09T16:09:34.240Z,99447.03
2024-05-09T16:12:02.330Z,99442.13
2024-05-09T16:14:33.489Z,99445.13
2024-05-09T16:17:04.632Z,99452.81
2024-05-09T16:19:35.889Z,99445.13
2024-05-09T16:22:04.184Z,99448.31
2024-05-09T16:24:35.401Z,99449.41
2024-05-09T16:27:03.919Z,99449.28
2024-05-09T16:29:35.053Z,99450.94
2024-05-09T16:32:06.662Z,99452.72
2024-05-09T16:34:37.906Z,99447.56
2024-05-09T16:37:10.310Z,99448.69
2024-05-09T16:39:41.595Z,99456.00
2024-05-09T16:42:09.817Z,99449.91
2024-05-09T16:44:41.042Z,99451.63
2024-05-09T16:47:11.899Z,99461.16
2024-05-09T16:49:47.078Z,99461.97
2024-05-09T16:52:15.794Z,99465.50
2024-05-09T16:54:47.256Z,99469.94
2024-05-09T16:57:16.104Z,99468.22
2024-05-09T16:59:47.438Z,99471.47
2024-05-09T17:02:18.462Z,99469.94
2024-05-09T17:04:49.905Z,99466.31
2024-05-09T17:07:18.409Z,99471.75
2024-05-09T17:09:49.754Z,99476.28
2024-05-09T17:12:20.547Z,99481.31
2024-05-09T17:14:51.952Z,99480.69
2024-05-09T17:17:25.924Z,99486.66
2024-05-09T17:19:57.166Z,99495.63
2024-05-09T17:22:25.611Z,99497.63
2024-05-09T17:24:56.974Z,99491.31
2024-05-09T17:27:25.131Z,99501.41
2024-05-09T17:29:56.362Z,99498.47
2024-05-09T17:32:27.534Z,99496.94
2024-05-09T17:34:59.023Z,99492.72
2024-05-09T17:37:27.378Z,99500.81
2024-05-09T17:39:58.584Z,99493.41
2024-05-09T17:42:26.642Z,99501.53
2024-05-09T17:44:57.867Z,99500.19
2024-05-09T17:47:28.792Z,99503.78
2024-05-09T17:50:00.052Z,99502.25
2024-05-09T17:52:28.153Z,99499.50
2024-05-09T17:54:59.396Z,99499.31
2024-05-09T17:57:27.761Z,99504.94
2024-05-09T17:59:58.934Z,99505.44
2024-05-09T18:02:29.816Z,99502.50
2024-05-09T18:05:01.945Z,99511.88
2024-05-09T18:07:30.590Z,99518.47
2024-05-09T18:10:01.956Z,99516.56
2024-05-09T18:12:30.299Z,99523.06
2024-05-09T18:15:02.179Z,99523.63
2024-05-09T18:17:33.686Z,99527.09
2024-05-09T18:20:05.666Z,99533.00
2024-05-09T18:22:33.917Z,99536.00
2024-05-09T18:25:04.993Z,99534.59
2024-05-09T18:27:33.211Z,99537.41
2024-05-09T18:30:07.373Z,99538.66
2024-05-09T18:32:40.314Z,99550.09
2024-05-09T18:35:11.614Z,99553.22
2024-05-09T18:37:40.177Z,99555.88
2024-05-09T18:40:20.905Z,99556.66
2024-05-09T18:42:55.903Z,99562.88
2024-05-09T18:45:27.074Z,99562.84
2024-05-09T18:47:58.420Z,99569.94
2024-05-09T18:50:35.614Z,99575.91
2024-05-09T18:53:06.834Z,99578.56
2024-05-09T18:55:38.060Z,99577.78
2024-05-09T18:58:06.509Z,99577.28
2024-05-09T19:00:40.276Z,99580.25
2024-05-09T19:03:14.796Z,99579.16
2024-05-09T19:05:47.392Z,99585.31
2024-05-09T19:08:15.858Z,99579.72
2024-05-09T19:10:48.192Z,99582.66
2024-05-09T19:13:16.761Z,99583.50
2024-05-09T19:15:48.035Z,99589.06
2024-05-09T19:18:19.110Z,99592.81
2024-05-09T19:20:50.417Z,99596.16
2024-05-09T19:23:18.620Z,99598.38
2024-05-09T19:25:49.813Z,99596.97
2024-05-09T19:28:18.070Z,99604.63
2024-05-09T19:30:49.340Z,99608.53
2024-05-09T19:33:20.155Z,99599.41
2024-05-09T19:35:51.335Z,99599.34
2024-05-09T19:38:19.695Z,99604.44
2024-05-09T19:40:50.875Z,99595.56
2024-05-09T19:43:19.167Z,99602.44
2024-05-09T19:45:50.537Z,99603.13
2024-05-09T19:48:21.797Z,99604.25
2024-05-09T19:50:53.486Z,99606.78
2024-05-09T19:53:22.054Z,99607.84
2024-05-09T19:55:53.169Z,99601.00
2024-05-09T19:58:21.418Z,99605.25
2024-05-09T20:00:52.763Z,99604.38
2024-05-09T20:03:23.654Z,99607.94
2024-05-09T20:05:55.271Z,99606.31
2024-05-09T20:08:23.426Z,99614.31
2024-05-09T20:10:54.786Z,99604.06
2024-05-09T20:13:23.083Z,99598.06
2024-05-09T20:15:54.522Z,99591.38
2024-05-09T20:18:28.271Z,99597.34
2024-05-09T20:20:56.932Z,99598.16
2024-05-09T20:23:27.820Z,99604.91
2024-05-09T20:25:56.274Z,99607.44
2024-05-09T20:28:27.388Z,99609.06
2024-05-09T20:30:56.093Z,99610.63
2024-05-09T20:33:31.059Z,99611.13
2024-05-09T20:36:01.862Z,99614.81
2024-05-09T20:38:33.110Z,99615.69
2024-05-09T20:41:02.247Z,99618.56
2024-05-09T20:43:33.055Z,99627.00
2024-05-09T20:46:01.776Z,99623.47
2024-05-09T20:48:35.451Z,99637.13
2024-05-09T20:51:04.274Z,99627.22
2024-05-09T20:53:34.972Z,99631.44
2024-05-09T20:56:03.533Z,99634.78
2024-05-09T20:58:34.311Z,99635.13
2024-05-09T21:01:03.049Z,99628.91
2024-05-09T21:06:06.683Z,99642.78
2024-05-09T21:08:37.492Z,99638.47
2024-05-09T21:11:06.932Z,99640.88
2024-05-09T21:13:38.073Z,99626.84
2024-05-09T21:16:07.669Z,99628.91
2024-05-09T21:18:41.321Z,99624.25
2024-05-09T21:21:10.069Z,99623.00
2024-05-09T21:23:41.021Z,99626.31
2024-05-09T21:26:09.498Z,99633.56
2024-05-09T21:28:40.395Z,99626.25
2024-05-09T21:31:09.485Z,99637.78
2024-05-09T21:33:43.182Z,99638.41
2024-05-09T21:36:11.781Z,99629.59
2024-05-09T21:38:43.484Z,99632.31
2024-05-09T21:41:11.953Z,99643.63
2024-05-09T21:43:42.722Z,99634.72
2024-05-09T21:46:11.201Z,99639.94
2024-05-09T21:48:44.720Z,99637.31
2024-05-09T21:51:16.475Z,99638.22
2024-05-09T21:53:47.322Z,99634.88
2024-05-09T21:56:15.912Z,99648.59
2024-05-09T21:58:46.663Z,99644.19
2024-05-09T22:01:15.188Z,99639.63
2024-05-09T22:03:49.047Z,99632.75
2024-05-09T22:06:17.830Z,99641.81
2024-05-09T22:08:48.573Z,99630.13
2024-05-09T22:11:17.213Z,99635.03
2024-05-09T22:13:48.059Z,99640.28
2024-05-09T22:16:16.579Z,99632.50
2024-05-09T22:18:50.269Z,99646.63
2024-05-09T22:21:19.041Z,99636.78
2024-05-09T22:23:49.791Z,99640.53
2024-05-09T22:26:18.281Z,99642.53
2024-05-09T22:28:49.023Z,99643.41
2024-05-09T22:31:17.590Z,99641.50
2024-05-09T22:33:51.302Z,99647.94
2024-05-09T22:36:19.871Z,99647.03
2024-05-09T22:38:50.565Z,99644.38
2024-05-09T22:41:19.092Z,99644.25
2024-05-09T22:43:49.843Z,99642.19
2024-05-09T22:46:18.418Z,99634.50
2024-05-09T22:48:51.975Z,99636.22
2024-05-09T22:51:20.547Z,99632.38
2024-05-09T22:53:51.369Z,99636.16
2024-05-09T22:56:27.354Z,99623.69
2024-05-09T22:58:58.233Z,99636.25
2024-05-09T23:01:27.484Z,99629.06
2024-05-09T23:04:01.287Z,99632.00
2024-05-09T23:06:31.860Z,99633.63
2024-05-09T23:09:02.727Z,99632.06
2024-05-09T23:11:31.453Z,99630.28
2024-05-09T23:14:02.245Z,99624.75
2024-05-09T23:16:30.767Z,99622.84
2024-05-09T23:19:04.368Z,99625.56
2024-05-09T23:21:33.270Z,99627.25
2024-05-09T23:24:03.992Z,99625.16
2024-05-09T23:26:32.757Z,99626.66
2024-05-09T23:29:03.793Z,99627.59
2024-05-09T23:31:32.391Z,99627.25
2024-05-09T23:34:05.951Z,99626.91
2024-05-09T23:36:34.588Z,99633.63
2024-05-09T23:39:05.347Z,99635.69
2024-05-09T23:41:33.797Z,99635.53
2024-05-09T23:44:04.494Z,99635.13
2024-05-09T23:46:32.992Z,99629.47
2024-05-09T23:49:06.576Z,99634.25
2024-05-09T23:51:35.276Z,99633.78
2024-05-09T23:54:08.561Z,99626.88
2024-05-09T23:56:37.092Z,99626.91
2024-05-09T23:59:07.875Z,99620.97
